KMCO/MCO METAR and TAF weather

Enter ICAO airport designator
Station Type Date Time Source
KMCO METAR 2021/10/20 05:53 UTC NOAA

KMCO 200553Z 05006KT 10SM FEW050 21/16 A3019 RMK AO2 SLP221 T02110156 10233 20200 58004


Station Type Date Time Source
KMCO Decoded METAR 2021/10/20 05:53 UTC NOAA

ORLANDO INTERNATIONAL AIRPORT , FL, United States (KMCO) 28-25N 81-20W 29M
Oct 20, 2021 - 01:53 AM EDT / 2021.10.20 0553 UTC
Wind: from the NE (050 degrees) at 7 MPH (6 KT):0
Visibility: 10 mile(s):0
Sky conditions: mostly clear
Temperature: 70.0 F (21.1 C)
Dew Point: 60.1 F (15.6 C)
Relative Humidity: 70%
Pressure (altimeter): 30.19 in. Hg (1022 hPa)
Pressure tendency: 0.01 inches (0.4 hPa) lower than three hours ago
ob: KMCO 200553Z 05006KT 10SM FEW050 21/16 A3019 RMK AO2 SLP221 T02110156 10233 20200 58004
cycle: 6

Station Type Date Time Source
KMCO TAF 2021/10/20 06:24 UTC NOAA

TAF KMCO 200522Z 2006/2112 03005KT P6SM FEW050 FEW250
FM201500 07010KT P6SM FEW045 SCT250
FM210100 08005KT P6SM FEW250

Example: see airport list